Time;durP1;ratioP1;P1;durP2;ratioP2;P2;SDS_P1;SDS_P2;PMS_P1;PMS_P2;Temp;Humidity;BMP_temperature;BMP_pressure;BME280_temperature;BME280_humidity;BME280_pressure;Samples;Min_cycle;Max_cycle;Signal;HPM_P1;HPM_P2
2023/10/01 00:01:21;;;;;;;;;;;;;;;22.13;58.39;101980.69;4784221;29;6361;-73
2023/10/01 00:03:48;;;;;;;;;;;;;;;22.12;58.63;101984.19;4784502;29;2146;-72
2023/10/01 00:06:14;;;;;;;;;;;;;;;22.13;58.55;101974.19;4788599;29;2740;-72
2023/10/01 00:08:41;;;;;;;;;;;;;;;22.13;58.57;101986.47;4786388;29;2368;-72
2023/10/01 00:11:08;;;;;;;;;;;;;;;22.12;58.70;101973.41;4769714;29;1624;-72
2023/10/01 00:13:35;;;;;;;;;;;;;;;22.11;58.72;101968.28;4784990;29;2344;-72
2023/10/01 00:16:02;;;;;;;;;;;;;;;22.11;58.79;101971.91;4787760;29;2010;-72
2023/10/01 00:18:29;;;;;;;;;;;;;;;22.12;58.67;101973.41;4789420;29;2177;-72
2023/10/01 00:20:55;;;;;;;;;;;;;;;22.11;58.45;101977.69;4787898;29;1597;-72
2023/10/01 00:23:21;;;;;;;;;;;;;;;22.11;58.47;101971.91;4788105;29;2145;-72
2023/10/01 00:25:48;;;;;;;;;;;;;;;22.10;58.38;101981.19;4786810;29;2367;-72
2023/10/01 00:28:15;;;;;;;;;;;;;;;22.10;58.53;101978.31;4767965;29;1949;-72
2023/10/01 00:30:41;;;;;;;;;;;;;;;22.10;58.36;101969.66;4785917;29;6370;-72
2023/10/01 00:33:10;;;;;;;;;;;;;;;22.08;58.73;101961.66;4782756;29;2370;-72
2023/10/01 00:35:40;;;;;;;;;;;;;;;22.09;58.84;101963.16;4783949;29;2339;-72
2023/10/01 00:38:07;;;;;;;;;;;;;;;22.09;58.77;101974.69;4786715;29;2204;-72
2023/10/01 00:40:33;;;;;;;;;;;;;;;22.09;58.42;101963.16;4787459;29;2172;-72
2023/10/01 00:43:01;;;;;;;;;;;;;;;22.08;58.69;101961.66;4767661;29;2140;-72
2023/10/01 00:45:28;;;;;;;;;;;;;;;22.09;58.34;101968.16;4784676;29;2423;-72
2023/10/01 00:47:55;;;;;;;;;;;;;;;22.09;58.66;101968.16;4787591;29;2193;-71
2023/10/01 00:50:21;;;;;;;;;;;;;;;22.08;58.49;101967.44;4771280;29;2185;-72
2023/10/01 00:52:49;;;;;;;;;;;;;;;22.07;58.38;101957.25;4768899;29;2286;-72
2023/10/01 00:55:16;;;;;;;;;;;;;;;22.08;58.58;101960.88;4770612;29;2498;-72
2023/10/01 00:57:42;;;;;;;;;;;;;;;22.09;58.54;101954.50;4787665;29;2115;-72
2023/10/01 01:00:14;;;;;;;;;;;;;;;22.08;58.73;101949.34;4767692;29;6421;-71
2023/10/01 01:02:47;;;;;;;;;;;;;;;22.06;58.49;101952.88;4797583;29;2167;-72
2023/10/01 01:05:20;;;;;;;;;;;;;;;22.06;58.62;101947.13;4776473;29;2374;-72
2023/10/01 01:07:47;;;;;;;;;;;;;;;22.07;58.46;101951.50;4778661;29;2287;-72
2023/10/01 01:10:18;;;;;;;;;;;;;;;22.06;58.76;101952.88;4787220;29;2342;-72
2023/10/01 01:12:45;;;;;;;;;;;;;;;22.07;58.50;101947.84;4788777;29;2145;-72
2023/10/01 01:15:14;;;;;;;;;;;;;;;22.06;58.64;101946.34;4769893;29;2659;-72
2023/10/01 01:17:41;;;;;;;;;;;;;;;22.04;58.69;101949.88;4784685;29;2376;-72
2023/10/01 01:20:09;;;;;;;;;;;;;;;22.04;58.76;101938.34;4785248;29;2395;-72
2023/10/01 01:22:37;;;;;;;;;;;;;;;22.06;58.65;101934.81;4786039;29;2307;-72
2023/10/01 01:25:20;;;;;;;;;;;;;;;22.06;58.54;101929.81;4769056;29;2349;-72
2023/10/01 01:27:47;;;;;;;;;;;;;;;22.05;58.69;101934.06;4785033;29;2179;-72
2023/10/01 01:30:26;;;;;;;;;;;;;;;22.04;58.65;101937.59;4781099;29;7737;-72
2023/10/01 01:32:53;;;;;;;;;;;;;;;22.05;58.42;101939.09;4769530;29;2180;-72
2023/10/01 01:35:27;;;;;;;;;;;;;;;22.04;58.68;101940.47;4782847;29;2418;-72
2023/10/01 01:37:55;;;;;;;;;;;;;;;22.04;58.54;101934.72;4767820;29;2420;-72
2023/10/01 01:40:25;;;;;;;;;;;;;;;22.02;58.82;101935.34;4784190;29;2480;-72
2023/10/01 01:42:56;;;;;;;;;;;;;;;22.02;58.42;101929.56;4785333;29;2232;-72
2023/10/01 01:45:26;;;;;;;;;;;;;;;22.03;58.73;101925.28;4785645;29;2358;-72
2023/10/01 01:47:53;;;;;;;;;;;;;;;22.03;58.85;101927.44;4785603;29;2300;-71
2023/10/01 01:50:26;;;;;;;;;;;;;;;22.02;58.50;101929.56;4769066;29;2353;-70
2023/10/01 01:52:56;;;;;;;;;;;;;;;22.03;58.50;101924.53;4786403;29;2409;-71
2023/10/01 01:55:29;;;;;;;;;;;;;;;22.02;58.66;101918.03;4785004;29;2519;-71
2023/10/01 01:58:08;;;;;;;;;;;;;;;22.02;58.69;101918.03;4785152;29;2208;-73
2023/10/01 02:00:39;;;;;;;;;;;;;;;22.00;58.52;101915.03;4768285;29;6197;-71
2023/10/01 02:03:14;;;;;;;;;;;;;;;22.01;58.40;101916.53;4769919;29;2419;-71
2023/10/01 02:05:41;;;;;;;;;;;;;;;22.01;58.72;101916.53;4786192;29;2472;-71
2023/10/01 02:08:09;;;;;;;;;;;;;;;22.02;58.77;101923.81;4785254;29;2121;-71
2023/10/01 02:10:45;;;;;;;;;;;;;;;22.01;58.75;101919.41;4789832;29;2082;-71
2023/10/01 02:13:13;;;;;;;;;;;;;;;21.99;58.42;101916.44;4774557;29;2365;-71
2023/10/01 02:15:39;;;;;;;;;;;;;;;22.00;58.44;101909.25;4787048;29;2411;-74
2023/10/01 02:18:08;;;;;;;;;;;;;;;22.00;58.51;101909.25;4786751;29;2348;-71
2023/10/01 02:20:35;;;;;;;;;;;;;;;22.00;58.44;101903.50;4790229;29;2228;-71
2023/10/01 02:23:02;;;;;;;;;;;;;;;22.00;58.51;101903.50;4789021;29;2308;-71
2023/10/01 02:25:38;;;;;;;;;;;;;;;21.99;58.76;101901.25;4790608;29;2156;-71
2023/10/01 02:28:13;;;;;;;;;;;;;;;21.98;58.58;101894.72;4791172;29;2142;-71
2023/10/01 02:30:44;;;;;;;;;;;;;;;21.99;58.82;101893.34;4789058;29;6438;-72
2023/10/01 02:33:18;;;;;;;;;;;;;;;21.99;58.81;101896.25;4789575;29;2309;-72
2023/10/01 02:35:49;;;;;;;;;;;;;;;21.99;58.65;101896.25;4788265;29;2331;-72
2023/10/01 02:41:02;;;;;;;;;;;;;;;21.97;58.84;101893.25;4788741;29;2176;-72
2023/10/01 02:43:34;;;;;;;;;;;;;;;21.97;58.75;101899.00;4789623;29;2336;-72
2023/10/01 02:46:07;;;;;;;;;;;;;;;21.97;58.86;101893.25;4788702;29;2409;-72
2023/10/01 02:48:34;;;;;;;;;;;;;;;21.97;58.78;101893.25;4774695;29;2267;-72
2023/10/01 02:51:16;;;;;;;;;;;;;;;21.98;58.65;101899.75;4772237;29;2206;-72
2023/10/01 02:54:04;;;;;;;;;;;;;;;21.98;58.51;101893.97;4789065;29;2316;-73
2023/10/01 02:56:34;;;;;;;;;;;;;;;21.97;58.54;101890.34;4790283;29;2033;-73
2023/10/01 02:59:09;;;;;;;;;;;;;;;21.96;58.74;101891.72;4788329;29;2196;-73
2023/10/01 03:01:39;;;;;;;;;;;;;;;21.96;58.75;101874.44;4773084;29;6703;-73
2023/10/01 03:04:10;;;;;;;;;;;;;;;21.96;58.53;101885.97;4770853;29;2340;-72
2023/10/01 03:06:42;;;;;;;;;;;;;;;21.96;58.52;101880.19;4788061;29;2443;-72
2023/10/01 03:09:22;;;;;;;;;;;;;;;21.96;58.91;101891.72;4786781;29;2354;-72
2023/10/01 03:11:53;;;;;;;;;;;;;;;21.95;58.51;101890.97;4773420;29;2360;-72
2023/10/01 03:14:25;;;;;;;;;;;;;;;21.95;58.84;101890.97;4786930;29;2333;-71
2023/10/01 03:16:56;;;;;;;;;;;;;;;21.95;58.81;101890.25;4772350;29;2193;-72
2023/10/01 03:19:25;;;;;;;;;;;;;;;21.95;58.65;101885.22;4785480;29;2300;-72
2023/10/01 03:22:15;;;;;;;;;;;;;;;21.96;58.79;101891.72;4787973;29;2199;-72
2023/10/01 03:24:46;;;;;;;;;;;;;;;21.96;58.81;101885.97;4787605;29;2338;-72
2023/10/01 03:27:27;;;;;;;;;;;;;;;21.95;58.62;101899.63;4789276;29;1606;-72
2023/10/01 03:30:20;;;;;;;;;;;;;;;21.95;58.54;101890.97;4788139;29;2047;-73
2023/10/01 03:32:46;;;;;;;;;;;;;;;21.96;58.63;101897.50;4789157;29;5976;-73
2023/10/01 03:35:13;;;;;;;;;;;;;;;21.96;58.56;101909.03;4787631;29;2666;-73
2023/10/01 03:37:40;;;;;;;;;;;;;;;21.95;58.50;101907.53;4785615;29;2346;-72
2023/10/01 03:40:10;;;;;;;;;;;;;;;21.95;58.73;101902.53;4785539;29;2158;-72
2023/10/01 03:42:37;;;;;;;;;;;;;;;21.94;58.69;101895.28;4789428;29;2130;-72
2023/10/01 03:47:58;;;;;;;;;;;;;;;21.94;58.90;101888.72;4787764;29;2244;-72
2023/10/01 03:50:25;;;;;;;;;;;;;;;21.93;58.83;101899.53;4787335;29;2231;-72
2023/10/01 03:52:54;;;;;;;;;;;;;;;21.93;58.48;101890.13;4787790;29;1865;-72
2023/10/01 03:55:30;;;;;;;;;;;;;;;21.93;58.55;101884.34;4788849;29;2268;-70
2023/10/01 04:00:41;;;;;;;;;;;;;;;21.93;58.73;101882.22;4787611;29;6322;-67
2023/10/01 04:03:13;;;;;;;;;;;;;;;21.94;58.59;101882.97;4784011;29;2398;-68
2023/10/01 04:05:44;;;;;;;;;;;;;;;21.93;58.75;101881.47;4786756;29;2328;-67
2023/10/01 04:08:13;;;;;;;;;;;;;;;21.92;58.88;101874.97;4787781;29;1989;-68
2023/10/01 04:10:41;;;;;;;;;;;;;;;21.92;58.45;101874.19;4787203;29;2193;-68
2023/10/01 04:13:20;;;;;;;;;;;;;;;21.92;58.72;101877.06;4787578;29;2192;-67
2023/10/01 04:15:48;;;;;;;;;;;;;;;21.93;58.78;101875.69;4786014;29;2347;-68
2023/10/01 04:20:48;;;;;;;;;;;;;;;21.91;58.71;101872.69;4788189;29;2092;-67
2023/10/01 04:23:24;;;;;;;;;;;;;;;21.91;58.96;101884.25;4787921;29;2102;-67
2023/10/01 04:25:51;;;;;;;;;;;;;;;21.92;58.90;101879.97;4786586;29;2375;-68
2023/10/01 04:28:20;;;;;;;;;;;;;;;21.92;58.60;101885.72;4788213;29;2243;-67
2023/10/01 04:30:51;;;;;;;;;;;;;;;21.91;58.60;101890.00;4786573;29;6350;-68
2023/10/01 04:33:24;;;;;;;;;;;;;;;21.90;58.57;101889.25;4786799;29;2133;-67
2023/10/01 04:35:58;;;;;;;;;;;;;;;21.90;58.59;101897.16;4787361;29;2139;-68
2023/10/01 04:38:32;;;;;;;;;;;;;;;21.91;58.51;101898.66;4788265;29;1802;-67
2023/10/01 04:40:58;;;;;;;;;;;;;;;21.91;58.84;101904.44;4788483;29;2291;-67
2023/10/01 04:43:34;;;;;;;;;;;;;;;21.90;58.60;101894.28;4788080;29;2168;-67
2023/10/01 04:46:08;;;;;;;;;;;;;;;21.89;58.64;101893.53;4787384;29;2296;-68
2023/10/01 04:48:36;;;;;;;;;;;;;;;21.89;58.52;101890.63;4788996;29;1649;-67
2023/10/01 04:51:03;;;;;;;;;;;;;;;21.89;58.93;101887.00;4788804;29;1706;-67
2023/10/01 04:53:30;;;;;;;;;;;;;;;21.90;58.76;101888.53;4788712;29;1622;-67
2023/10/01 04:56:06;;;;;;;;;;;;;;;21.89;58.94;101895.66;4785432;29;2272;-67
2023/10/01 04:58:36;;;;;;;;;;;;;;;21.89;58.80;101895.66;4785576;29;2427;-67
2023/10/01 05:01:05;;;;;;;;;;;;;;;21.89;58.48;101898.53;4785695;29;7397;-67
2023/10/01 05:03:44;;;;;;;;;;;;;;;21.89;58.64;101892.78;4787053;29;2364;-66
2023/10/01 05:06:14;;;;;;;;;;;;;;;21.89;58.87;101892.78;4786427;29;2217;-66
2023/10/01 05:08:41;;;;;;;;;;;;;;;21.89;58.93;101898.53;4787939;29;1735;-66
2023/10/01 05:11:11;;;;;;;;;;;;;;;21.88;58.60;101889.16;4769924;29;2116;-67
2023/10/01 05:13:41;;;;;;;;;;;;;;;21.88;58.70;101894.16;4786111;29;2344;-66
2023/10/01 05:16:08;;;;;;;;;;;;;;;21.88;58.59;101897.81;4785826;29;2247;-66
2023/10/01 05:18:34;;;;;;;;;;;;;;;21.87;58.92;101896.28;4787813;29;2244;-67
2023/10/01 05:21:04;;;;;;;;;;;;;;;21.87;58.61;101890.50;4786689;29;2254;-67
2023/10/01 05:23:30;;;;;;;;;;;;;;;21.87;58.74;101901.31;4787529;29;2336;-66
2023/10/01 05:25:57;;;;;;;;;;;;;;;21.87;58.90;101895.53;4787575;29;2157;-66
2023/10/01 05:28:23;;;;;;;;;;;;;;;21.88;58.91;101899.94;4771092;29;2291;-66
2023/10/01 05:30:56;;;;;;;;;;;;;;;21.86;58.63;101900.56;4783619;29;6100;-68
2023/10/01 05:33:24;;;;;;;;;;;;;;;21.85;58.66;101898.31;4787499;29;2165;-67
2023/10/01 05:35:54;;;;;;;;;;;;;;;21.87;58.88;101901.31;4786391;29;2292;-67
2023/10/01 05:38:21;;;;;;;;;;;;;;;21.86;59.02;101899.81;4786104;29;2185;-67
2023/10/01 05:40:52;;;;;;;;;;;;;;;21.87;58.77;101904.19;4786531;29;2375;-67
2023/10/01 05:43:18;;;;;;;;;;;;;;;21.87;58.97;101907.06;4786881;29;2196;-67
2023/10/01 05:45:52;;;;;;;;;;;;;;;21.84;58.63;101891.06;4789341;29;2421;-67
2023/10/01 05:48:19;;;;;;;;;;;;;;;21.87;58.93;101898.44;4789703;29;2395;-67
2023/10/01 05:50:53;;;;;;;;;;;;;;;21.85;58.82;101895.41;4788306;29;2549;-66
2023/10/01 05:53:20;;;;;;;;;;;;;;;21.84;58.90;101896.81;4789279;29;2376;-66
2023/10/01 05:55:47;;;;;;;;;;;;;;;21.83;58.76;101881.66;4789236;29;2890;-66
2023/10/01 05:58:13;;;;;;;;;;;;;;;21.82;58.65;101883.03;4771825;29;2358;-67
2023/10/01 06:00:56;;;;;;;;;;;;;;;21.84;58.58;101885.28;4771303;29;6590;-67
2023/10/01 06:03:30;;;;;;;;;;;;;;;21.84;58.71;101880.25;4788120;29;2351;-66
2023/10/01 06:06:08;;;;;;;;;;;;;;;21.83;58.89;101878.00;4789550;29;2278;-67
2023/10/01 06:08:44;;;;;;;;;;;;;;;21.83;58.95;101872.25;4789438;29;2271;-66
2023/10/01 06:11:13;;;;;;;;;;;;;;;21.85;58.59;101886.78;4790243;29;2131;-66
2023/10/01 06:13:48;;;;;;;;;;;;;;;21.83;58.96;101884.53;4788395;29;2348;-67
2023/10/01 06:16:15;;;;;;;;;;;;;;;21.84;58.60;101879.50;4790184;29;2041;-66
2023/10/01 06:18:49;;;;;;;;;;;;;;;21.84;58.79;101885.28;4789751;29;2236;-67
2023/10/01 06:21:18;;;;;;;;;;;;;;;21.83;58.64;101887.44;4790498;29;2395;-66
2023/10/01 06:23:50;;;;;;;;;;;;;;;21.83;58.89;101884.53;4789196;29;2379;-67
2023/10/01 06:26:29;;;;;;;;;;;;;;;21.83;58.94;101878.00;4791083;29;2099;-66
2023/10/01 06:28:56;;;;;;;;;;;;;;;21.82;58.66;101883.03;4790315;29;2161;-67
2023/10/01 06:31:23;;;;;;;;;;;;;;;21.84;58.80;101888.16;4787911;29;6208;-66
2023/10/01 06:33:53;;;;;;;;;;;;;;;21.83;58.94;101889.53;4788137;29;2292;-66
2023/10/01 06:36:21;;;;;;;;;;;;;;;21.84;58.68;101879.50;4790571;29;2162;-67
2023/10/01 06:38:53;;;;;;;;;;;;;;;21.82;58.88;101876.53;4789933;29;2049;-67
2023/10/01 06:41:20;;;;;;;;;;;;;;;21.83;58.58;101884.53;4789414;29;2576;-67
2023/10/01 06:43:49;;;;;;;;;;;;;;;21.85;58.76;101883.88;4790231;29;2122;-67
2023/10/01 06:46:16;;;;;;;;;;;;;;;21.84;58.46;101880.25;4789117;29;2365;-67
2023/10/01 06:48:43;;;;;;;;;;;;;;;21.87;58.92;101872.47;4789606;29;2198;-67
2023/10/01 06:51:12;;;;;;;;;;;;;;;21.87;58.86;101878.97;4787791;29;2374;-67
2023/10/01 06:53:45;;;;;;;;;;;;;;;21.88;58.98;101882.63;4786687;29;2363;-67
2023/10/01 06:56:16;;;;;;;;;;;;;;;21.86;58.78;101883.25;4787357;29;2304;-67
2023/10/01 06:59:03;;;;;;;;;;;;;;;21.87;58.97;101890.50;4787218;29;2359;-67
2023/10/01 07:01:42;;;;;;;;;;;;;;;21.88;58.84;101891.28;4788306;29;6283;-67
2023/10/01 07:04:09;;;;;;;;;;;;;;;21.87;58.63;101889.78;4786354;29;2165;-67
2023/10/01 07:06:36;;;;;;;;;;;;;;;21.87;58.99;101878.25;4789892;29;2141;-66
2023/10/01 07:09:06;;;;;;;;;;;;;;;21.87;58.98;101895.53;4789499;29;2253;-67
2023/10/01 07:11:33;;;;;;;;;;;;;;;21.87;58.81;101904.19;4788695;29;2270;-67
2023/10/01 07:14:01;;;;;;;;;;;;;;;21.86;59.03;101894.06;4774271;29;2303;-67
2023/10/01 07:16:39;;;;;;;;;;;;;;;21.87;59.11;101896.28;4789544;29;2288;-67
2023/10/01 07:19:11;;;;;;;;;;;;;;;21.87;59.17;101901.31;4787687;29;2299;-67
2023/10/01 07:21:39;;;;;;;;;;;;;;;21.87;59.02;101907.06;4789590;29;2132;-67
2023/10/01 07:24:10;;;;;;;;;;;;;;;21.87;59.17;101904.19;4787848;29;2328;-67
2023/10/01 07:26:42;;;;;;;;;;;;;;;21.87;59.00;101901.31;4786318;29;2407;-67
2023/10/01 07:29:08;;;;;;;;;;;;;;;21.87;59.27;101902.03;4787766;29;2348;-68
2023/10/01 07:31:38;;;;;;;;;;;;;;;21.87;59.28;101912.84;4787244;29;6746;-67
2023/10/01 07:34:12;;;;;;;;;;;;;;;21.88;59.06;101911.47;4788303;29;2159;-67
2023/10/01 07:36:42;;;;;;;;;;;;;;;21.88;59.04;101911.47;4788792;29;2269;-67
2023/10/01 07:39:09;;;;;;;;;;;;;;;21.88;59.28;101912.22;4787357;29;2202;-67
2023/10/01 07:41:38;;;;;;;;;;;;;;;21.87;58.93;101907.06;4786488;29;2288;-67
2023/10/01 07:44:08;;;;;;;;;;;;;;;21.87;58.87;101913.59;4787568;29;2201;-67
2023/10/01 07:46:36;;;;;;;;;;;;;;;21.87;59.18;101910.69;4787714;29;2440;-67
2023/10/01 07:49:08;;;;;;;;;;;;;;;21.87;59.25;101912.84;4786356;29;2213;-67
2023/10/01 07:51:38;;;;;;;;;;;;;;;21.87;59.05;101922.22;4788770;29;2201;-67
2023/10/01 07:54:11;;;;;;;;;;;;;;;21.88;58.94;101925.88;4788138;29;2372;-67
2023/10/01 07:56:39;;;;;;;;;;;;;;;21.86;59.13;101923.63;4785272;29;2423;-67
2023/10/01 07:59:28;;;;;;;;;;;;;;;21.86;59.07;101912.09;4786157;29;2437;-67
2023/10/01 08:04:57;;;;;;;;;;;;;;;21.87;59.10;101918.59;4777290;29;2025;-67
2023/10/01 08:07:30;;;;;;;;;;;;;;;21.85;59.08;101918.50;4788149;29;2067;-67
2023/10/01 08:09:59;;;;;;;;;;;;;;;21.86;58.95;101914.97;4787632;29;2355;-67
2023/10/01 08:12:33;;;;;;;;;;;;;;;21.84;58.93;101908.34;4788204;29;2113;-67
2023/10/01 08:17:45;;;;;;;;;;;;;;;21.86;58.89;101912.09;4788485;29;2198;-67
2023/10/01 08:20:21;;;;;;;;;;;;;;;21.87;59.04;101913.59;4787272;29;2300;-68
2023/10/01 08:25:33;;;;;;;;;;;;;;;21.85;59.21;101916.38;4787945;29;2125;-67
2023/10/01 08:30:43;;;;;;;;;;;;;;;21.87;59.23;101918.59;4786852;29;6477;-67
2023/10/01 08:33:21;;;;;;;;;;;;;;;21.87;59.23;101930.16;4787298;29;2315;-67
2023/10/01 08:38:36;;;;;;;;;;;;;;;21.88;59.20;101920.13;4783659;29;2349;-67
2023/10/01 08:41:04;;;;;;;;;;;;;;;21.87;59.37;101921.50;4784661;29;2339;-67
2023/10/01 08:43:30;;;;;;;;;;;;;;;21.89;57.44;101921.59;4787249;29;2436;-67
2023/10/01 08:45:58;;;;;;;;;;;;;;;21.84;56.62;101919.88;4785126;29;2403;-66
2023/10/01 08:48:35;;;;;;;;;;;;;;;21.88;56.15;101929.53;4786102;29;2378;-67
2023/10/01 08:51:11;;;;;;;;;;;;;;;21.78;55.90;101928.19;4788716;29;2113;-67
2023/10/01 08:53:41;;;;;;;;;;;;;;;21.77;55.52;101929.56;4787127;29;2166;-67
2023/10/01 08:56:13;;;;;;;;;;;;;;;21.75;55.30;101930.94;4788566;29;2102;-67
2023/10/01 08:58:49;;;;;;;;;;;;;;;21.78;54.81;101920.28;4786362;29;2276;-67
2023/10/01 09:01:19;;;;;;;;;;;;;;;21.80;54.71;101925.41;4784612;29;6487;-67
2023/10/01 09:03:49;;;;;;;;;;;;;;;21.67;54.31;101913.19;4787034;29;2321;-67
2023/10/01 09:06:25;;;;;;;;;;;;;;;21.69;54.43;101921.97;4787599;29;2000;-67
2023/10/01 09:08:59;;;;;;;;;;;;;;;21.70;54.27;101911.91;4787443;29;2158;-67
2023/10/01 09:11:35;;;;;;;;;;;;;;;21.71;54.44;101924.19;4785005;29;2447;-68
2023/10/01 09:14:15;;;;;;;;;;;;;;;21.47;54.64;101912.00;4787881;29;2286;-70
2023/10/01 09:16:45;;;;;;;;;;;;;;;21.49;53.32;101920.78;4787541;29;2040;-68
2023/10/01 09:19:30;;;;;;;;;;;;;;;21.61;54.52;101921.47;4787808;29;2220;-68
2023/10/01 09:22:15;;;;;;;;;;;;;;;21.32;54.46;101921.91;4787328;29;2187;-68
2023/10/01 09:24:43;;;;;;;;;;;;;;;21.26;54.45;101919.44;4787202;29;2192;-68
2023/10/01 09:27:18;;;;;;;;;;;;;;;21.24;53.68;101916.44;4785712;29;2165;-69
2023/10/01 09:29:56;;;;;;;;;;;;;;;21.20;53.64;101907.53;4787710;29;2050;-68
2023/10/01 09:32:47;;;;;;;;;;;;;;;21.29;53.49;101905.88;4786702;29;7275;-68
2023/10/01 09:35:13;;;;;;;;;;;;;;;21.22;53.06;101901.91;4773737;29;2092;-68
2023/10/01 09:37:52;;;;;;;;;;;;;;;21.21;53.75;101897.53;4769979;29;2222;-69
2023/10/01 09:43:02;;;;;;;;;;;;;;;21.24;53.37;101896.25;4786885;29;2558;-69
2023/10/01 09:45:29;;;;;;;;;;;;;;;21.27;53.50;101897.88;4785557;29;2106;-68
2023/10/01 09:48:01;;;;;;;;;;;;;;;21.24;53.32;101884.72;4786962;29;2299;-68
2023/10/01 09:50:27;;;;;;;;;;;;;;;21.29;53.19;101882.84;4786686;29;2612;-69
2023/10/01 09:52:59;;;;;;;;;;;;;;;21.32;52.98;101878.69;4771959;29;2305;-69
2023/10/01 09:55:26;;;;;;;;;;;;;;;21.34;52.99;101876.69;4787124;29;2212;-69
2023/10/01 09:57:54;;;;;;;;;;;;;;;21.33;52.96;101880.94;4787325;29;2113;-69
2023/10/01 10:00:39;;;;;;;;;;;;;;;21.33;53.20;101886.72;4784538;29;6125;-70
2023/10/01 10:03:09;;;;;;;;;;;;;;;21.39;53.15;101888.44;4773495;29;1732;-75
2023/10/01 10:05:35;;;;;;;;;;;;;;;21.41;53.04;101885.72;4770922;29;2274;-74
2023/10/01 10:08:15;;;;;;;;;;;;;;;21.43;52.27;101888.72;4783810;29;2220;-75
2023/10/01 10:10:48;;;;;;;;;;;;;;;21.48;51.87;101890.44;4785493;29;2334;-73
2023/10/01 10:13:36;;;;;;;;;;;;;;;21.55;51.85;101889.41;4786562;29;2213;-73
2023/10/01 10:16:29;;;;;;;;;;;;;;;21.60;50.98;101888.28;4786896;29;2704;-74
2023/10/01 10:19:06;;;;;;;;;;;;;;;21.65;50.86;101887.13;4786543;29;2265;-74
2023/10/01 10:22:05;;;;;;;;;;;;;;;21.68;51.33;101894.50;4786707;29;2317;-73
2023/10/01 10:24:32;;;;;;;;;;;;;;;21.71;51.70;101896.09;4787418;29;2206;-73
2023/10/01 10:27:01;;;;;;;;;;;;;;;21.74;52.04;101894.84;4786216;29;2256;-74
2023/10/01 10:32:26;;;;;;;;;;;;;;;21.77;52.51;101887.06;4789703;29;6604;-74
2023/10/01 10:35:06;;;;;;;;;;;;;;;21.78;52.53;101888.56;4789113;29;2348;-73
2023/10/01 10:37:36;;;;;;;;;;;;;;;21.79;52.97;101890.06;4790436;29;2195;-74
2023/10/01 10:40:04;;;;;;;;;;;;;;;21.74;53.28;101885.47;4789855;29;2432;-75
2023/10/01 10:42:34;;;;;;;;;;;;;;;21.78;53.43;101879.16;4789904;29;1623;-78
2023/10/01 10:45:21;;;;;;;;;;;;;;;21.83;53.27;101875.91;4789579;29;2204;-77
2023/10/01 10:48:01;;;;;;;;;;;;;;;21.86;53.56;101877.50;4787958;29;2381;-77
2023/10/01 10:50:45;;;;;;;;;;;;;;;21.84;53.77;101879.50;4785142;29;4377;-77
2023/10/01 10:53:19;;;;;;;;;;;;;;;22.04;54.52;101880.66;4787410;29;2771;-75
2023/10/01 10:55:59;;;;;;;;;;;;;;;22.11;53.53;101888.25;4775118;29;2349;-75
2023/10/01 10:58:31;;;;;;;;;;;;;;;22.04;53.76;101877.78;4787810;29;2503;-77
2023/10/01 11:01:15;;;;;;;;;;;;;;;22.27;54.00;101891.31;4790461;29;6336;-81
2023/10/01 11:03:43;;;;;;;;;;;;;;;22.40;53.61;101892.72;4792230;29;1713;-83
2023/10/01 11:07:01;;;;;;;;;;;;;;;22.25;53.91;101902.00;4788997;29;4413;-81
2023/10/01 11:09:22;;;;;;;;;;;;;;;22.23;54.30;101893.97;4790135;29;4000;-83
2023/10/01 11:11:49;;;;;;;;;;;;;;;22.31;53.97;101890.78;4788891;29;2513;-84
2023/10/01 11:14:16;;;;;;;;;;;;;;;22.39;54.02;101888.34;4791382;29;4375;-83
2023/10/01 11:16:45;;;;;;;;;;;;;;;22.40;53.80;101886.22;4789425;29;2738;-89
2023/10/01 11:19:12;;;;;;;;;;;;;;;22.41;53.72;101882.69;4788735;29;2522;-85
2023/10/01 11:22:00;;;;;;;;;;;;;;;22.44;53.74;101875.63;4787170;29;2578;-84
2023/10/01 11:24:30;;;;;;;;;;;;;;;22.53;53.99;101876.81;4791971;29;2577;-83
2023/10/01 11:27:14;;;;;;;;;;;;;;;22.71;53.54;101874.16;4787842;29;2443;-84
2023/10/01 11:29:42;;;;;;;;;;;;;;;22.67;52.96;101874.69;4789126;29;2462;-83
2023/10/01 11:32:16;;;;;;;;;;;;;;;22.72;52.77;101875.66;4771354;29;6535;-84
2023/10/01 11:34:46;;;;;;;;;;;;;;;22.75;51.98;101868.59;4788847;29;2453;-87
2023/10/01 11:37:16;;;;;;;;;;;;;;;22.78;52.36;101865.16;4787992;29;2430;-88
2023/10/01 11:39:49;;;;;;;;;;;;;;;22.86;52.58;101861.97;4788586;29;2539;-86
2023/10/01 11:42:25;;;;;;;;;;;;;;;22.95;52.35;101866.00;4784141;29;4182;-84
2023/10/01 11:44:52;;;;;;;;;;;;;;;22.81;52.68;101863.13;4786068;29;2605;-85
2023/10/01 11:47:31;;;;;;;;;;;;;;;22.83;52.72;101869.00;4788930;29;2499;-88
2023/10/01 11:50:09;;;;;;;;;;;;;;;22.88;52.93;101862.06;4789957;29;2443;-85
2023/10/01 11:52:37;;;;;;;;;;;;;;;22.87;52.78;101865.59;4789227;29;2430;-87
2023/10/01 11:55:18;;;;;;;;;;;;;;;22.82;53.16;101866.78;4789877;29;2474;-89
2023/10/01 11:58:03;;;;;;;;;;;;;;;22.88;52.82;101864.19;4789335;29;2911;-88
2023/10/01 12:00:52;;;;;;;;;;;;;;;22.97;53.05;101858.19;4787505;29;6392;-89
2023/10/01 12:03:19;;;;;;;;;;;;;;;22.95;52.77;101858.09;4788038;29;2491;-88
2023/10/01 12:05:47;;;;;;;;;;;;;;;22.94;52.82;101862.38;4788321;29;2394;-84
2023/10/01 12:08:18;;;;;;;;;;;;;;;23.10;52.70;101864.63;4788452;29;2439;-83
2023/10/01 12:10:44;;;;;;;;;;;;;;;23.05;52.76;101860.06;4788509;29;2534;-87
2023/10/01 12:13:13;;;;;;;;;;;;;;;22.95;52.31;101849.44;4788260;29;2475;-83
2023/10/01 12:15:57;;;;;;;;;;;;;;;22.77;52.71;101860.06;4789415;29;2467;-86
2023/10/01 12:18:36;;;;;;;;;;;;;;;22.57;52.82;101860.47;4790531;29;1990;-86
2023/10/01 12:21:24;;;;;;;;;;;;;;;22.75;52.50;101854.16;4843235;23;3707;-93
2023/10/01 12:23:52;;;;;;;;;;;;;;;22.84;52.36;101856.09;4850423;29;1719;-84
2023/10/01 12:29:11;;;;;;;;;;;;;;;22.94;51.95;101847.19;4853212;29;1641;-84
2023/10/01 12:31:31;;;;;;;;;;;;;;;22.92;51.85;101844.94;4851602;29;6088;-84
2023/10/01 12:34:00;;;;;;;;;;;;;;;22.93;51.69;101849.34;4852516;29;1792;-86
2023/10/01 12:36:32;;;;;;;;;;;;;;;22.94;51.67;101855.84;4852144;29;2048;-84
2023/10/01 12:41:56;;;;;;;;;;;;;;;22.95;51.71;101846.56;4850028;29;1848;-83
2023/10/01 12:44:32;;;;;;;;;;;;;;;22.95;51.82;101846.56;4852467;29;1625;-86
2023/10/01 12:47:07;;;;;;;;;;;;;;;23.00;51.84;101839.63;4852464;29;1582;-87
2023/10/01 12:49:34;;;;;;;;;;;;;;;22.95;51.48;101849.44;4836040;29;1689;-84
2023/10/01 12:52:05;;;;;;;;;;;;;;;22.72;52.12;101841.00;4851380;29;1657;-83
2023/10/01 12:54:36;;;;;;;;;;;;;;;22.67;52.10;101831.38;4851435;29;1648;-85
2023/10/01 12:57:05;;;;;;;;;;;;;;;22.66;52.31;101832.03;4846672;29;2713;-85
2023/10/01 12:59:41;;;;;;;;;;;;;;;22.70;52.07;101833.00;4847960;29;2462;-85
2023/10/01 13:07:41;;;;;;;;;;;;;;;22.59;51.73;101837.47;4851392;29;1805;-90
2023/10/01 13:10:07;;;;;;;;;;;;;;;22.77;52.11;101843.47;4850839;29;1654;-83
2023/10/01 13:12:49;;;;;;;;;;;;;;;22.82;51.54;101838.66;4851624;29;1583;-83
2023/10/01 13:15:15;;;;;;;;;;;;;;;22.83;51.21;101839.41;4849487;29;2215;-86
2023/10/01 13:17:45;;;;;;;;;;;;;;;22.84;51.30;101841.66;4850942;29;2161;-83
2023/10/01 13:20:29;;;;;;;;;;;;;;;22.80;51.29;101832.75;4849701;29;1915;-85
2023/10/01 13:23:06;;;;;;;;;;;;;;;22.80;51.06;101847.22;4875920;29;1761;-83
2023/10/01 13:25:33;;;;;;;;;;;;;;;22.80;50.84;101829.88;4887270;29;1723;-83
2023/10/01 13:28:04;;;;;;;;;;;;;;;22.77;51.33;101819.63;4887438;29;1595;-83
2023/10/01 13:33:23;;;;;;;;;;;;;;;23.02;51.21;101812.22;4885806;29;1853;-84
2023/10/01 13:35:56;;;;;;;;;;;;;;;23.06;50.79;101812.41;4887720;29;1635;-83
2023/10/01 13:38:27;;;;;;;;;;;;;;;23.07;50.74;101806.00;4886104;29;2187;-84
2023/10/01 14:11:04;;;;;;;;;;;;;;;22.72;50.44;101791.91;4887668;29;2572;-85
2023/10/01 14:13:41;;;;;;;;;;;;;;;22.76;50.59;101786.34;4889463;29;2589;-86
2023/10/01 14:16:12;;;;;;;;;;;;;;;22.71;50.85;101787.53;4887598;29;2422;-86
2023/10/01 14:18:39;;;;;;;;;;;;;;;22.66;51.32;101785.84;4879118;29;2388;-87
2023/10/01 14:21:16;;;;;;;;;;;;;;;22.64;51.56;101780.69;4889463;29;2332;-86
2023/10/01 14:23:42;;;;;;;;;;;;;;;22.62;51.97;101779.84;4890143;29;2289;-86
2023/10/01 14:26:43;;;;;;;;;;;;;;;22.56;52.39;101780.28;4890775;29;2339;-86